sensor_id;sensor_type;location;lat;lon;timestamp;temperature;humidity
18321;DHT22;54904;54.350;18.664;2023-12-20T00:01:45;10.70;99.90
18321;DHT22;54904;54.350;18.664;2023-12-20T00:04:13;10.80;99.90
18321;DHT22;54904;54.350;18.664;2023-12-20T00:06:40;10.80;99.90
18321;DHT22;54904;54.350;18.664;2023-12-20T00:09:09;10.80;99.90
18321;DHT22;54904;54.350;18.664;2023-12-20T00:11:38;10.70;99.90
18321;DHT22;54904;54.350;18.664;2023-12-20T00:14:07;10.70;99.90
18321;DHT22;54904;54.350;18.664;2023-12-20T00:16:37;10.70;99.90
18321;DHT22;54904;54.350;18.664;2023-12-20T00:19:08;10.70;99.90
18321;DHT22;54904;54.350;18.664;2023-12-20T00:21:35;10.70;99.90
18321;DHT22;54904;54.350;18.664;2023-12-20T00:24:12;10.70;99.90
18321;DHT22;54904;54.350;18.664;2023-12-20T00:26:39;10.70;99.90
18321;DHT22;54904;54.350;18.664;2023-12-20T00:29:06;10.70;99.90
18321;DHT22;54904;54.350;18.664;2023-12-20T00:31:33;10.70;99.90
18321;DHT22;54904;54.350;18.664;2023-12-20T00:34:00;10.70;99.90
18321;DHT22;54904;54.350;18.664;2023-12-20T00:36:28;10.70;99.90
18321;DHT22;54904;54.350;18.664;2023-12-20T00:38:55;10.70;99.90
18321;DHT22;54904;54.350;18.664;2023-12-20T00:41:22;10.70;99.90
18321;DHT22;54904;54.350;18.664;2023-12-20T00:43:49;10.60;99.90
18321;DHT22;54904;54.350;18.664;2023-12-20T00:46:17;10.60;99.90
18321;DHT22;54904;54.350;18.664;2023-12-20T00:48:45;10.60;99.90
18321;DHT22;54904;54.350;18.664;2023-12-20T00:51:12;10.50;99.90
18321;DHT22;54904;54.350;18.664;2023-12-20T00:53:43;10.50;99.90
18321;DHT22;54904;54.350;18.664;2023-12-20T00:56:13;10.50;99.90
18321;DHT22;54904;54.350;18.664;2023-12-20T00:58:40;10.50;99.90
18321;DHT22;54904;54.350;18.664;2023-12-20T01:01:07;10.50;99.90
18321;DHT22;54904;54.350;18.664;2023-12-20T01:03:34;10.50;99.90
18321;DHT22;54904;54.350;18.664;2023-12-20T01:06:00;10.50;99.90
18321;DHT22;54904;54.350;18.664;2023-12-20T01:08:27;10.50;99.90
18321;DHT22;54904;54.350;18.664;2023-12-20T01:10:56;10.50;99.90
18321;DHT22;54904;54.350;18.664;2023-12-20T01:13:23;10.50;99.90
18321;DHT22;54904;54.350;18.664;2023-12-20T01:15:50;10.40;99.90
18321;DHT22;54904;54.350;18.664;2023-12-20T01:18:17;10.50;99.90
18321;DHT22;54904;54.350;18.664;2023-12-20T01:20:47;10.50;99.90
18321;DHT22;54904;54.350;18.664;2023-12-20T01:23:16;10.40;99.90
18321;DHT22;54904;54.350;18.664;2023-12-20T01:25:48;10.40;99.90
18321;DHT22;54904;54.350;18.664;2023-12-20T01:28:17;10.40;99.90
18321;DHT22;54904;54.350;18.664;2023-12-20T01:30:44;10.40;99.90
18321;DHT22;54904;54.350;18.664;2023-12-20T01:33:13;10.30;99.90
18321;DHT22;54904;54.350;18.664;2023-12-20T01:35:40;10.30;99.90
18321;DHT22;54904;54.350;18.664;2023-12-20T01:38:08;10.20;99.90
18321;DHT22;54904;54.350;18.664;2023-12-20T01:40:35;10.20;99.90
18321;DHT22;54904;54.350;18.664;2023-12-20T01:43:06;10.20;99.90
18321;DHT22;54904;54.350;18.664;2023-12-20T01:45:35;10.10;99.90
18321;DHT22;54904;54.350;18.664;2023-12-20T01:48:08;10.20;99.90
18321;DHT22;54904;54.350;18.664;2023-12-20T01:50:37;10.10;99.90
18321;DHT22;54904;54.350;18.664;2023-12-20T01:53:05;10.20;99.90
18321;DHT22;54904;54.350;18.664;2023-12-20T01:55:35;10.10;99.90
18321;DHT22;54904;54.350;18.664;2023-12-20T01:58:04;10.10;99.90
18321;DHT22;54904;54.350;18.664;2023-12-20T02:00:31;10.10;99.90
18321;DHT22;54904;54.350;18.664;2023-12-20T02:03:01;10.10;99.90
18321;DHT22;54904;54.350;18.664;2023-12-20T02:05:31;10.00;99.90
18321;DHT22;54904;54.350;18.664;2023-12-20T02:07:58;10.00;99.90
18321;DHT22;54904;54.350;18.664;2023-12-20T02:10:26;10.00;99.90
18321;DHT22;54904;54.350;18.664;2023-12-20T02:12:54;10.00;99.90
18321;DHT22;54904;54.350;18.664;2023-12-20T02:15:22;10.00;99.90
18321;DHT22;54904;54.350;18.664;2023-12-20T02:17:49;10.00;99.90
18321;DHT22;54904;54.350;18.664;2023-12-20T02:20:17;10.00;99.90
18321;DHT22;54904;54.350;18.664;2023-12-20T02:22:46;10.00;99.90
18321;DHT22;54904;54.350;18.664;2023-12-20T02:25:13;9.90;99.90
18321;DHT22;54904;54.350;18.664;2023-12-20T02:27:41;9.90;99.90
18321;DHT22;54904;54.350;18.664;2023-12-20T02:30:09;9.90;99.90
18321;DHT22;54904;54.350;18.664;2023-12-20T02:32:37;9.80;99.90
18321;DHT22;54904;54.350;18.664;2023-12-20T02:35:07;9.80;99.90
18321;DHT22;54904;54.350;18.664;2023-12-20T02:37:36;9.80;99.90
18321;DHT22;54904;54.350;18.664;2023-12-20T02:40:06;9.80;99.90
18321;DHT22;54904;54.350;18.664;2023-12-20T02:42:33;9.70;99.90
18321;DHT22;54904;54.350;18.664;2023-12-20T02:45:04;9.70;99.90
18321;DHT22;54904;54.350;18.664;2023-12-20T02:47:31;10.60;99.90
18321;DHT22;54904;54.350;18.664;2023-12-20T02:49:58;9.60;99.90
18321;DHT22;54904;54.350;18.664;2023-12-20T02:52:27;9.60;99.90
18321;DHT22;54904;54.350;18.664;2023-12-20T02:54:57;9.60;99.90
18321;DHT22;54904;54.350;18.664;2023-12-20T02:57:28;9.50;99.90
18321;DHT22;54904;54.350;18.664;2023-12-20T02:59:55;9.50;99.90
18321;DHT22;54904;54.350;18.664;2023-12-20T03:02:22;9.50;99.90
18321;DHT22;54904;54.350;18.664;2023-12-20T03:04:49;9.50;99.90
18321;DHT22;54904;54.350;18.664;2023-12-20T03:07:16;9.50;99.90
18321;DHT22;54904;54.350;18.664;2023-12-20T03:09:46;9.50;99.90
18321;DHT22;54904;54.350;18.664;2023-12-20T03:12:13;9.50;99.90
18321;DHT22;54904;54.350;18.664;2023-12-20T03:14:45;9.40;99.90
18321;DHT22;54904;54.350;18.664;2023-12-20T03:17:12;9.40;99.90
18321;DHT22;54904;54.350;18.664;2023-12-20T03:19:40;9.40;99.90
18321;DHT22;54904;54.350;18.664;2023-12-20T03:22:09;9.40;99.90
18321;DHT22;54904;54.350;18.664;2023-12-20T03:24:38;9.40;99.90
18321;DHT22;54904;54.350;18.664;2023-12-20T03:27:05;9.30;99.90
18321;DHT22;54904;54.350;18.664;2023-12-20T03:29:38;9.30;99.90
18321;DHT22;54904;54.350;18.664;2023-12-20T03:32:07;9.30;99.90
18321;DHT22;54904;54.350;18.664;2023-12-20T03:34:36;9.30;99.90
18321;DHT22;54904;54.350;18.664;2023-12-20T03:37:06;9.40;99.90
18321;DHT22;54904;54.350;18.664;2023-12-20T03:39:39;9.30;99.90
18321;DHT22;54904;54.350;18.664;2023-12-20T03:42:06;9.30;99.90
18321;DHT22;54904;54.350;18.664;2023-12-20T03:44:33;9.30;99.90
18321;DHT22;54904;54.350;18.664;2023-12-20T03:47:00;9.40;99.90
18321;DHT22;54904;54.350;18.664;2023-12-20T03:49:29;9.40;99.90
18321;DHT22;54904;54.350;18.664;2023-12-20T03:51:56;9.40;99.90
18321;DHT22;54904;54.350;18.664;2023-12-20T03:54:24;9.40;99.90
18321;DHT22;54904;54.350;18.664;2023-12-20T03:56:51;9.40;99.90
18321;DHT22;54904;54.350;18.664;2023-12-20T03:59:20;9.40;99.90
18321;DHT22;54904;54.350;18.664;2023-12-20T04:01:47;9.40;99.90
18321;DHT22;54904;54.350;18.664;2023-12-20T04:04:14;9.40;99.90
18321;DHT22;54904;54.350;18.664;2023-12-20T04:06:45;9.40;99.90
18321;DHT22;54904;54.350;18.664;2023-12-20T04:09:18;9.40;99.90
18321;DHT22;54904;54.350;18.664;2023-12-20T04:11:48;9.40;99.90
18321;DHT22;54904;54.350;18.664;2023-12-20T04:14:24;9.40;99.90
18321;DHT22;54904;54.350;18.664;2023-12-20T04:16:54;9.40;99.90
18321;DHT22;54904;54.350;18.664;2023-12-20T04:19:21;9.40;99.90
18321;DHT22;54904;54.350;18.664;2023-12-20T04:21:50;9.50;99.90
18321;DHT22;54904;54.350;18.664;2023-12-20T04:24:19;9.40;99.90
18321;DHT22;54904;54.350;18.664;2023-12-20T04:26:46;9.40;99.90
18321;DHT22;54904;54.350;18.664;2023-12-20T04:29:13;9.40;99.90
18321;DHT22;54904;54.350;18.664;2023-12-20T04:31:43;9.30;99.90
18321;DHT22;54904;54.350;18.664;2023-12-20T04:34:12;9.40;99.90
18321;DHT22;54904;54.350;18.664;2023-12-20T04:36:42;9.40;99.90
18321;DHT22;54904;54.350;18.664;2023-12-20T04:39:11;9.40;99.90
18321;DHT22;54904;54.350;18.664;2023-12-20T04:41:39;9.30;99.90
18321;DHT22;54904;54.350;18.664;2023-12-20T04:44:06;9.30;99.90
18321;DHT22;54904;54.350;18.664;2023-12-20T04:46:36;9.30;99.90
18321;DHT22;54904;54.350;18.664;2023-12-20T04:49:03;9.30;99.90
18321;DHT22;54904;54.350;18.664;2023-12-20T04:51:33;9.30;99.90
18321;DHT22;54904;54.350;18.664;2023-12-20T04:54:00;9.20;99.90
18321;DHT22;54904;54.350;18.664;2023-12-20T04:56:28;9.20;99.90
18321;DHT22;54904;54.350;18.664;2023-12-20T04:58:55;9.20;99.90
18321;DHT22;54904;54.350;18.664;2023-12-20T05:01:29;9.20;99.90
18321;DHT22;54904;54.350;18.664;2023-12-20T05:03:56;9.20;99.90
18321;DHT22;54904;54.350;18.664;2023-12-20T05:06:23;9.20;99.90
18321;DHT22;54904;54.350;18.664;2023-12-20T05:08:51;9.20;99.90
18321;DHT22;54904;54.350;18.664;2023-12-20T05:11:18;9.10;99.90
18321;DHT22;54904;54.350;18.664;2023-12-20T05:13:47;9.10;99.90
18321;DHT22;54904;54.350;18.664;2023-12-20T05:16:14;9.90;99.90
18321;DHT22;54904;54.350;18.664;2023-12-20T05:18:47;9.10;99.90
18321;DHT22;54904;54.350;18.664;2023-12-20T05:21:15;9.10;99.90
18321;DHT22;54904;54.350;18.664;2023-12-20T05:23:42;9.10;99.90
18321;DHT22;54904;54.350;18.664;2023-12-20T05:26:11;9.10;99.90
18321;DHT22;54904;54.350;18.664;2023-12-20T05:28:41;9.00;99.90
18321;DHT22;54904;54.350;18.664;2023-12-20T05:31:09;9.00;99.90
18321;DHT22;54904;54.350;18.664;2023-12-20T05:33:40;9.00;99.90
18321;DHT22;54904;54.350;18.664;2023-12-20T05:36:07;9.00;99.90
18321;DHT22;54904;54.350;18.664;2023-12-20T05:38:37;9.00;99.90
18321;DHT22;54904;54.350;18.664;2023-12-20T05:41:10;9.00;99.90
18321;DHT22;54904;54.350;18.664;2023-12-20T05:43:40;9.00;99.90
18321;DHT22;54904;54.350;18.664;2023-12-20T05:46:08;9.00;99.90
18321;DHT22;54904;54.350;18.664;2023-12-20T05:48:38;8.90;99.90
18321;DHT22;54904;54.350;18.664;2023-12-20T05:51:05;8.90;99.90
18321;DHT22;54904;54.350;18.664;2023-12-20T05:53:32;8.90;99.90
18321;DHT22;54904;54.350;18.664;2023-12-20T05:55:59;8.90;99.90
18321;DHT22;54904;54.350;18.664;2023-12-20T05:58:28;8.90;99.90
18321;DHT22;54904;54.350;18.664;2023-12-20T06:00:57;8.90;99.90
18321;DHT22;54904;54.350;18.664;2023-12-20T06:03:26;8.90;99.90
18321;DHT22;54904;54.350;18.664;2023-12-20T06:05:56;8.90;99.90
18321;DHT22;54904;54.350;18.664;2023-12-20T06:08:25;8.90;99.90
18321;DHT22;54904;54.350;18.664;2023-12-20T06:10:52;8.80;99.90
18321;DHT22;54904;54.350;18.664;2023-12-20T06:13:19;8.80;99.90
18321;DHT22;54904;54.350;18.664;2023-12-20T06:15:46;8.80;99.90
18321;DHT22;54904;54.350;18.664;2023-12-20T06:18:13;8.80;99.90
18321;DHT22;54904;54.350;18.664;2023-12-20T06:20:42;8.80;99.90
18321;DHT22;54904;54.350;18.664;2023-12-20T06:23:09;8.80;99.90
18321;DHT22;54904;54.350;18.664;2023-12-20T06:25:36;8.70;99.90
18321;DHT22;54904;54.350;18.664;2023-12-20T06:28:04;8.70;99.90
18321;DHT22;54904;54.350;18.664;2023-12-20T06:30:36;8.70;99.90
18321;DHT22;54904;54.350;18.664;2023-12-20T06:33:06;8.70;99.90
18321;DHT22;54904;54.350;18.664;2023-12-20T06:35:35;8.70;99.90
18321;DHT22;54904;54.350;18.664;2023-12-20T06:38:07;8.70;99.90
18321;DHT22;54904;54.350;18.664;2023-12-20T06:40:39;8.70;99.90
18321;DHT22;54904;54.350;18.664;2023-12-20T06:43:06;8.70;99.90
18321;DHT22;54904;54.350;18.664;2023-12-20T06:45:34;8.70;99.90
18321;DHT22;54904;54.350;18.664;2023-12-20T06:48:01;8.70;99.90
18321;DHT22;54904;54.350;18.664;2023-12-20T06:50:28;8.70;99.90
18321;DHT22;54904;54.350;18.664;2023-12-20T06:52:58;8.70;99.90
18321;DHT22;54904;54.350;18.664;2023-12-20T06:55:26;8.70;99.90
18321;DHT22;54904;54.350;18.664;2023-12-20T06:57:54;8.70;99.90
18321;DHT22;54904;54.350;18.664;2023-12-20T07:00:23;8.70;99.90
18321;DHT22;54904;54.350;18.664;2023-12-20T07:02:50;8.70;99.90
18321;DHT22;54904;54.350;18.664;2023-12-20T07:05:21;8.70;99.90
18321;DHT22;54904;54.350;18.664;2023-12-20T07:07:50;8.70;99.90
18321;DHT22;54904;54.350;18.664;2023-12-20T07:10:17;8.70;99.90
18321;DHT22;54904;54.350;18.664;2023-12-20T07:12:46;8.70;99.90
18321;DHT22;54904;54.350;18.664;2023-12-20T07:15:17;8.80;99.90
18321;DHT22;54904;54.350;18.664;2023-12-20T07:17:50;8.80;99.90
18321;DHT22;54904;54.350;18.664;2023-12-20T07:20:17;8.70;99.90
18321;DHT22;54904;54.350;18.664;2023-12-20T07:22:45;8.70;99.90
18321;DHT22;54904;54.350;18.664;2023-12-20T07:25:13;8.70;99.90
18321;DHT22;54904;54.350;18.664;2023-12-20T07:27:40;8.60;99.90
18321;DHT22;54904;54.350;18.664;2023-12-20T07:30:10;8.60;99.90
18321;DHT22;54904;54.350;18.664;2023-12-20T07:32:40;8.50;99.90
18321;DHT22;54904;54.350;18.664;2023-12-20T07:35:09;8.50;99.90
18321;DHT22;54904;54.350;18.664;2023-12-20T07:37:36;8.40;99.90
18321;DHT22;54904;54.350;18.664;2023-12-20T07:40:04;8.40;99.90
18321;DHT22;54904;54.350;18.664;2023-12-20T07:42:31;8.40;99.90
18321;DHT22;54904;54.350;18.664;2023-12-20T07:44:58;8.40;99.90
18321;DHT22;54904;54.350;18.664;2023-12-20T07:47:27;8.40;99.90
18321;DHT22;54904;54.350;18.664;2023-12-20T07:49:54;8.40;99.90
18321;DHT22;54904;54.350;18.664;2023-12-20T07:52:21;8.40;99.90
18321;DHT22;54904;54.350;18.664;2023-12-20T07:54:48;8.40;99.90
18321;DHT22;54904;54.350;18.664;2023-12-20T07:57:16;8.40;99.90
18321;DHT22;54904;54.350;18.664;2023-12-20T07:59:43;8.40;99.90
18321;DHT22;54904;54.350;18.664;2023-12-20T08:02:10;8.40;99.90
18321;DHT22;54904;54.350;18.664;2023-12-20T08:04:41;8.40;99.90
18321;DHT22;54904;54.350;18.664;2023-12-20T08:07:11;8.40;99.90
18321;DHT22;54904;54.350;18.664;2023-12-20T08:09:40;8.30;99.90
18321;DHT22;54904;54.350;18.664;2023-12-20T08:12:11;8.20;99.90
18321;DHT22;54904;54.350;18.664;2023-12-20T08:14:38;8.20;99.90
18321;DHT22;54904;54.350;18.664;2023-12-20T08:17:07;8.30;99.90
18321;DHT22;54904;54.350;18.664;2023-12-20T08:19:38;8.30;99.90
18321;DHT22;54904;54.350;18.664;2023-12-20T08:22:05;8.30;99.90
18321;DHT22;54904;54.350;18.664;2023-12-20T08:24:32;8.40;99.90
18321;DHT22;54904;54.350;18.664;2023-12-20T08:26:59;8.50;99.90
18321;DHT22;54904;54.350;18.664;2023-12-20T08:29:26;8.70;99.90
18321;DHT22;54904;54.350;18.664;2023-12-20T08:31:56;8.90;99.90
18321;DHT22;54904;54.350;18.664;2023-12-20T08:34:26;9.00;99.90
18321;DHT22;54904;54.350;18.664;2023-12-20T08:36:55;9.00;99.90
18321;DHT22;54904;54.350;18.664;2023-12-20T08:39:22;9.00;99.90
18321;DHT22;54904;54.350;18.664;2023-12-20T08:41:52;9.30;99.90
18321;DHT22;54904;54.350;18.664;2023-12-20T08:44:22;9.40;99.90
18321;DHT22;54904;54.350;18.664;2023-12-20T08:46:52;9.60;99.90
18321;DHT22;54904;54.350;18.664;2023-12-20T08:49:22;10.00;99.90
18321;DHT22;54904;54.350;18.664;2023-12-20T08:51:51;10.40;99.90
18321;DHT22;54904;54.350;18.664;2023-12-20T08:54:20;10.30;99.90
18321;DHT22;54904;54.350;18.664;2023-12-20T08:56:50;10.40;99.90
18321;DHT22;54904;54.350;18.664;2023-12-20T08:59:17;10.40;99.90
18321;DHT22;54904;54.350;18.664;2023-12-20T09:01:47;10.40;99.90
18321;DHT22;54904;54.350;18.664;2023-12-20T09:04:25;10.30;99.90
18321;DHT22;54904;54.350;18.664;2023-12-20T09:06:53;10.40;99.90
18321;DHT22;54904;54.350;18.664;2023-12-20T09:09:21;10.40;99.90
18321;DHT22;54904;54.350;18.664;2023-12-20T09:11:48;10.30;99.90
18321;DHT22;54904;54.350;18.664;2023-12-20T09:14:17;10.20;99.90
18321;DHT22;54904;54.350;18.664;2023-12-20T09:16:46;10.20;99.90
18321;DHT22;54904;54.350;18.664;2023-12-20T09:19:13;10.10;99.90
18321;DHT22;54904;54.350;18.664;2023-12-20T09:21:41;10.10;99.90
18321;DHT22;54904;54.350;18.664;2023-12-20T09:24:08;10.10;99.90
18321;DHT22;54904;54.350;18.664;2023-12-20T09:26:37;10.00;99.90
18321;DHT22;54904;54.350;18.664;2023-12-20T09:29:05;9.90;99.90
18321;DHT22;54904;54.350;18.664;2023-12-20T09:31:33;9.90;99.90
18321;DHT22;54904;54.350;18.664;2023-12-20T09:34:00;9.80;99.90
18321;DHT22;54904;54.350;18.664;2023-12-20T09:36:28;9.70;99.90
18321;DHT22;54904;54.350;18.664;2023-12-20T09:38:57;9.90;99.90
18321;DHT22;54904;54.350;18.664;2023-12-20T09:41:25;10.20;99.90
18321;DHT22;54904;54.350;18.664;2023-12-20T09:43:54;10.20;99.90
18321;DHT22;54904;54.350;18.664;2023-12-20T09:46:24;10.30;99.90
18321;DHT22;54904;54.350;18.664;2023-12-20T09:48:56;10.60;99.90
18321;DHT22;54904;54.350;18.664;2023-12-20T09:51:23;10.40;99.90
18321;DHT22;54904;54.350;18.664;2023-12-20T09:53:53;10.30;99.90
18321;DHT22;54904;54.350;18.664;2023-12-20T09:56:21;10.20;99.90
18321;DHT22;54904;54.350;18.664;2023-12-20T09:58:48;10.20;99.90
18321;DHT22;54904;54.350;18.664;2023-12-20T10:01:17;10.10;99.90
18321;DHT22;54904;54.350;18.664;2023-12-20T10:03:46;10.10;99.90
18321;DHT22;54904;54.350;18.664;2023-12-20T10:06:22;10.10;99.90
18321;DHT22;54904;54.350;18.664;2023-12-20T10:08:50;10.10;99.90
18321;DHT22;54904;54.350;18.664;2023-12-20T10:11:17;10.10;99.90
18321;DHT22;54904;54.350;18.664;2023-12-20T10:13:47;10.10;99.90
18321;DHT22;54904;54.350;18.664;2023-12-20T10:16:15;10.20;99.90
18321;DHT22;54904;54.350;18.664;2023-12-20T10:18:43;10.10;99.90
18321;DHT22;54904;54.350;18.664;2023-12-20T10:21:14;10.10;99.90
18321;DHT22;54904;54.350;18.664;2023-12-20T10:23:41;10.00;99.90
18321;DHT22;54904;54.350;18.664;2023-12-20T10:26:08;10.00;99.90
18321;DHT22;54904;54.350;18.664;2023-12-20T10:28:38;9.90;99.90
18321;DHT22;54904;54.350;18.664;2023-12-20T10:33:44;9.70;99.90
18321;DHT22;54904;54.350;18.664;2023-12-20T10:36:11;9.70;99.90
18321;DHT22;54904;54.350;18.664;2023-12-20T10:38:44;9.60;99.90
18321;DHT22;54904;54.350;18.664;2023-12-20T10:41:11;9.50;99.90
18321;DHT22;54904;54.350;18.664;2023-12-20T10:43:39;9.50;99.90
18321;DHT22;54904;54.350;18.664;2023-12-20T10:46:08;9.40;99.90
18321;DHT22;54904;54.350;18.664;2023-12-20T10:48:37;9.40;99.90
18321;DHT22;54904;54.350;18.664;2023-12-20T10:51:08;9.30;99.90
18321;DHT22;54904;54.350;18.664;2023-12-20T10:53:36;9.30;99.90
18321;DHT22;54904;54.350;18.664;2023-12-20T10:56:11;9.30;99.90
18321;DHT22;54904;54.350;18.664;2023-12-20T10:58:42;9.30;99.90
18321;DHT22;54904;54.350;18.664;2023-12-20T11:01:13;9.20;99.90
18321;DHT22;54904;54.350;18.664;2023-12-20T11:03:43;9.20;99.90
18321;DHT22;54904;54.350;18.664;2023-12-20T11:06:23;9.20;99.90
18321;DHT22;54904;54.350;18.664;2023-12-20T11:09:08;9.10;99.90
18321;DHT22;54904;54.350;18.664;2023-12-20T11:11:47;9.10;99.90
18321;DHT22;54904;54.350;18.664;2023-12-20T11:14:22;9.10;99.90
18321;DHT22;54904;54.350;18.664;2023-12-20T11:17:05;9.10;99.90
18321;DHT22;54904;54.350;18.664;2023-12-20T11:19:32;9.10;99.90
18321;DHT22;54904;54.350;18.664;2023-12-20T11:22:05;9.10;99.90
18321;DHT22;54904;54.350;18.664;2023-12-20T11:24:33;9.00;99.90
18321;DHT22;54904;54.350;18.664;2023-12-20T11:27:05;9.00;99.90
18321;DHT22;54904;54.350;18.664;2023-12-20T11:29:33;9.00;99.90
18321;DHT22;54904;54.350;18.664;2023-12-20T11:34:44;9.00;99.90
18321;DHT22;54904;54.350;18.664;2023-12-20T11:37:20;9.00;99.90
18321;DHT22;54904;54.350;18.664;2023-12-20T11:39:55;9.00;99.90
18321;DHT22;54904;54.350;18.664;2023-12-20T11:42:23;9.00;99.90
18321;DHT22;54904;54.350;18.664;2023-12-20T11:44:50;9.00;99.90
18321;DHT22;54904;54.350;18.664;2023-12-20T11:47:26;9.00;99.90
18321;DHT22;54904;54.350;18.664;2023-12-20T11:49:56;9.00;99.90
18321;DHT22;54904;54.350;18.664;2023-12-20T11:52:24;9.00;99.90
18321;DHT22;54904;54.350;18.664;2023-12-20T11:54:51;9.00;99.90
18321;DHT22;54904;54.350;18.664;2023-12-20T11:57:19;9.00;99.90
18321;DHT22;54904;54.350;18.664;2023-12-20T11:59:46;9.00;99.90
18321;DHT22;54904;54.350;18.664;2023-12-20T12:02:13;9.10;99.90
18321;DHT22;54904;54.350;18.664;2023-12-20T12:04:41;9.10;99.90
18321;DHT22;54904;54.350;18.664;2023-12-20T12:07:08;9.10;99.90
18321;DHT22;54904;54.350;18.664;2023-12-20T12:09:37;9.10;99.90
18321;DHT22;54904;54.350;18.664;2023-12-20T12:12:05;9.10;99.90
18321;DHT22;54904;54.350;18.664;2023-12-20T12:14:32;9.20;99.90
18321;DHT22;54904;54.350;18.664;2023-12-20T12:17:02;9.20;99.90
18321;DHT22;54904;54.350;18.664;2023-12-20T12:19:30;9.20;99.90
18321;DHT22;54904;54.350;18.664;2023-12-20T12:22:07;9.20;99.90
18321;DHT22;54904;54.350;18.664;2023-12-20T12:24:40;9.20;99.90
18321;DHT22;54904;54.350;18.664;2023-12-20T12:27:10;9.10;99.90
18321;DHT22;54904;54.350;18.664;2023-12-20T12:29:37;9.10;99.90
18321;DHT22;54904;54.350;18.664;2023-12-20T12:32:09;9.10;99.90
18321;DHT22;54904;54.350;18.664;2023-12-20T12:34:36;9.10;99.90
18321;DHT22;54904;54.350;18.664;2023-12-20T12:37:09;9.10;99.90
18321;DHT22;54904;54.350;18.664;2023-12-20T12:39:38;9.10;99.90
18321;DHT22;54904;54.350;18.664;2023-12-20T12:42:05;9.10;99.90
18321;DHT22;54904;54.350;18.664;2023-12-20T12:44:32;9.10;99.90
18321;DHT22;54904;54.350;18.664;2023-12-20T12:47:00;9.10;99.90
18321;DHT22;54904;54.350;18.664;2023-12-20T12:49:29;9.10;99.90
18321;DHT22;54904;54.350;18.664;2023-12-20T12:51:56;9.10;99.90
18321;DHT22;54904;54.350;18.664;2023-12-20T12:54:26;9.10;99.90
18321;DHT22;54904;54.350;18.664;2023-12-20T12:56:55;9.10;99.90
18321;DHT22;54904;54.350;18.664;2023-12-20T12:59:23;9.10;99.90
18321;DHT22;54904;54.350;18.664;2023-12-20T13:01:51;9.10;99.90
18321;DHT22;54904;54.350;18.664;2023-12-20T13:04:19;9.10;99.90
18321;DHT22;54904;54.350;18.664;2023-12-20T13:06:46;9.10;99.90
18321;DHT22;54904;54.350;18.664;2023-12-20T13:09:13;9.10;99.90
18321;DHT22;54904;54.350;18.664;2023-12-20T13:11:41;9.10;99.90
18321;DHT22;54904;54.350;18.664;2023-12-20T13:14:10;9.00;99.90
18321;DHT22;54904;54.350;18.664;2023-12-20T13:16:41;9.00;99.90
18321;DHT22;54904;54.350;18.664;2023-12-20T13:19:08;9.00;99.90
18321;DHT22;54904;54.350;18.664;2023-12-20T13:21:35;9.00;99.90
18321;DHT22;54904;54.350;18.664;2023-12-20T13:24:06;9.00;99.90
18321;DHT22;54904;54.350;18.664;2023-12-20T13:26:33;9.10;99.90
18321;DHT22;54904;54.350;18.664;2023-12-20T13:29:00;9.00;99.90
18321;DHT22;54904;54.350;18.664;2023-12-20T13:31:29;9.00;99.90
18321;DHT22;54904;54.350;18.664;2023-12-20T13:33:57;9.00;99.90
18321;DHT22;54904;54.350;18.664;2023-12-20T13:36:26;9.00;99.90
18321;DHT22;54904;54.350;18.664;2023-12-20T13:38:58;9.00;99.90
18321;DHT22;54904;54.350;18.664;2023-12-20T13:41:28;9.00;99.90
18321;DHT22;54904;54.350;18.664;2023-12-20T13:43:56;9.00;99.90
18321;DHT22;54904;54.350;18.664;2023-12-20T13:46:23;9.10;99.90
18321;DHT22;54904;54.350;18.664;2023-12-20T13:49:09;9.10;99.90
18321;DHT22;54904;54.350;18.664;2023-12-20T13:51:38;8.50;99.90
18321;DHT22;54904;54.350;18.664;2023-12-20T13:54:05;9.00;99.90
18321;DHT22;54904;54.350;18.664;2023-12-20T13:56:32;9.10;99.90
18321;DHT22;54904;54.350;18.664;2023-12-20T13:59:02;9.00;99.90
18321;DHT22;54904;54.350;18.664;2023-12-20T14:01:29;9.00;99.90
18321;DHT22;54904;54.350;18.664;2023-12-20T14:03:57;9.00;99.90
18321;DHT22;54904;54.350;18.664;2023-12-20T14:06:27;9.00;99.90
18321;DHT22;54904;54.350;18.664;2023-12-20T14:08:55;9.00;99.90
18321;DHT22;54904;54.350;18.664;2023-12-20T14:11:23;9.00;99.90
18321;DHT22;54904;54.350;18.664;2023-12-20T14:13:50;9.00;99.90
18321;DHT22;54904;54.350;18.664;2023-12-20T14:16:17;9.00;99.90
18321;DHT22;54904;54.350;18.664;2023-12-20T14:18:44;9.00;99.90
18321;DHT22;54904;54.350;18.664;2023-12-20T14:21:11;8.90;99.90
18321;DHT22;54904;54.350;18.664;2023-12-20T14:23:40;9.00;99.90
18321;DHT22;54904;54.350;18.664;2023-12-20T14:26:07;9.00;99.90
18321;DHT22;54904;54.350;18.664;2023-12-20T14:28:43;8.90;99.90
18321;DHT22;54904;54.350;18.664;2023-12-20T14:31:13;9.00;99.90
18321;DHT22;54904;54.350;18.664;2023-12-20T14:33:43;9.00;99.90
18321;DHT22;54904;54.350;18.664;2023-12-20T14:36:11;8.90;99.90
18321;DHT22;54904;54.350;18.664;2023-12-20T14:38:45;9.00;99.90
18321;DHT22;54904;54.350;18.664;2023-12-20T14:41:12;9.80;99.90
18321;DHT22;54904;54.350;18.664;2023-12-20T14:43:43;8.90;99.90
18321;DHT22;54904;54.350;18.664;2023-12-20T14:46:12;8.90;99.90
18321;DHT22;54904;54.350;18.664;2023-12-20T14:48:41;8.90;99.90
18321;DHT22;54904;54.350;18.664;2023-12-20T14:51:08;9.00;99.90
18321;DHT22;54904;54.350;18.664;2023-12-20T14:53:36;9.00;99.90
18321;DHT22;54904;54.350;18.664;2023-12-20T14:56:05;9.00;99.90
18321;DHT22;54904;54.350;18.664;2023-12-20T14:58:37;9.00;99.90
18321;DHT22;54904;54.350;18.664;2023-12-20T15:01:07;9.00;99.90
18321;DHT22;54904;54.350;18.664;2023-12-20T15:03:40;9.00;99.90
18321;DHT22;54904;54.350;18.664;2023-12-20T15:06:07;8.90;99.90
18321;DHT22;54904;54.350;18.664;2023-12-20T15:08:37;8.90;99.90
18321;DHT22;54904;54.350;18.664;2023-12-20T15:11:09;8.90;99.90
18321;DHT22;54904;54.350;18.664;2023-12-20T15:13:36;8.90;99.90
18321;DHT22;54904;54.350;18.664;2023-12-20T15:16:04;8.90;99.90
18321;DHT22;54904;54.350;18.664;2023-12-20T15:18:31;8.90;99.90
18321;DHT22;54904;54.350;18.664;2023-12-20T15:20:58;8.90;99.90
18321;DHT22;54904;54.350;18.664;2023-12-20T15:23:28;8.90;99.90
18321;DHT22;54904;54.350;18.664;2023-12-20T15:25:59;8.80;99.90
18321;DHT22;54904;54.350;18.664;2023-12-20T15:28:27;8.80;99.90
18321;DHT22;54904;54.350;18.664;2023-12-20T15:30:56;8.80;99.90
18321;DHT22;54904;54.350;18.664;2023-12-20T15:33:23;8.80;99.90
18321;DHT22;54904;54.350;18.664;2023-12-20T15:35:50;8.80;99.90
18321;DHT22;54904;54.350;18.664;2023-12-20T15:38:17;9.50;99.90
18321;DHT22;54904;54.350;18.664;2023-12-20T15:40:48;8.80;99.90
18321;DHT22;54904;54.350;18.664;2023-12-20T15:43:15;8.80;99.90